• Join FlightAware (Why Join?)
  • Login
  • US Flag 
11:31PM EDT


 

Airport Tracker/Info


-or-


 

Live Flight TrackerFlight Track Log ✈ ASQ5958 ✈ 05-May-2013 ✈ KTUL - KORD

Flight Track Log - Related Links

Times and Time Zones

All times are in EDT time to prevent confusion due to time zone crossing. See the ASQ5958 flight status page for this flight to view local times or setup timezone preferences in your user account.

Time Position Orientation Groundspeed Altitude Reporting Facility
EDT Latitude Longitude Course Direction KTS MPH feet Rate Location/Type
02:35PM 36.1953 -95.9125 270° West 169 194 1,400  Level Kansas City Center
02:35PM 36.1953 -95.9383 270° West 172 198 2,300 2,460 Climbing Kansas City Center
02:36PM 36.2247 -95.9864 307° West 217 250 5,200 2,040 Climbing Kansas City Center
02:37PM 36.2456 -95.9681 35° Northeast 230 265 5,600 1,860 Climbing Kansas City Center
02:37PM 36.2608 -95.9194 69° East 265 305 7,100 2,760 Climbing Kansas City Center
02:38PM 36.2811 -95.8711 62° Northeast 259 298 8,500 2,280 Climbing Kansas City Center
02:39PM 36.3136 -95.7864 65° Northeast 268 308 10,900 2,220 Climbing Kansas City Center
02:40PM 36.3500 -95.6981 63° Northeast 282 325 13,200 2,220 Climbing Kansas City Center
02:41PM 36.3903 -95.5956 64° Northeast 295 339 15,500 2,040 Climbing Kansas City Center
02:42PM 36.4278 -95.5022 63° Northeast 301 346 17,500 1,620 Climbing Kansas City Center
02:43PM 36.4661 -95.4036 64° Northeast 309 356 18,900 1,320 Climbing Kansas City Center
02:44PM 36.5058 -95.3039 64° Northeast 318 366 20,300 960 Climbing Kansas City Center
02:45PM 36.5500 -95.1928 64° Northeast 339 390 20,900 720 Climbing Kansas City Center
02:46PM 36.5969 -95.0711 64° Northeast 369 425 21,800 900 Climbing Kansas City Center
02:47PM 36.6447 -94.9472 64° Northeast 390 449 22,800 1,020 Climbing Kansas City Center
02:48PM 36.7039 -94.7958 64° Northeast 401 461 24,000 1,020 Climbing Kansas City Center
02:49PM 36.7522 -94.6683 65° Northeast 405 466 25,000 960 Climbing Kansas City Center
02:50PM 36.8025 -94.5394 64° Northeast 410 472 26,100 1,080 Climbing Kansas City Center
02:51PM 36.8606 -94.4219 58° Northeast 402 463 27,300 1,140 Climbing Kansas City Center
02:52PM 36.9447 -94.3378 39° Northeast 388 447 28,500 1,140 Climbing Kansas City Center
02:53PM 37.0272 -94.2558 38° Northeast 381 438 29,700 1,140 Climbing Kansas City Center
02:54PM 37.1092 -94.1758 38° Northeast 376 433 30,900 1,140 Climbing Kansas City Center
02:55PM 37.1947 -94.0908 38° Northeast 372 428 32,100 1,020 Climbing Kansas City Center
02:56PM 37.2772 -94.0125 37° Northeast 371 427 33,100 1,020 Climbing Kansas City Center
02:57PM 37.3731 -93.9142 39° Northeast 370 426 34,300 900 Climbing Kansas City Center
02:58PM 37.4536 -93.8328 39° Northeast 370 426 35,000 300 Climbing Kansas City Center
02:59PM 37.5381 -93.7492 38° Northeast 379 436 35,000  Level Kansas City Center
03:00PM 37.6258 -93.6603 39° Northeast 395 455 35,000  Level Kansas City Center
03:02PM 37.7156 -93.5722 38° Northeast 405 466 35,000  Level Kansas City Center
03:03PM 37.8022 -93.4839 39° Northeast 402 463 35,000  Level Kansas City Center
03:04PM 37.8900 -93.3947 39° Northeast 400 460 35,000  Level Kansas City Center
03:05PM 37.9761 -93.3078 39° Northeast 398 458 35,000  Level Kansas City Center
03:06PM 38.0800 -93.2014 39° Northeast 396 456 35,000  Level Kansas City Center
03:07PM 38.1653 -93.1150 39° Northeast 392 451 35,000  Level Kansas City Center
03:08PM 38.2525 -93.0275 38° Northeast 394 453 35,000  Level Kansas City Center
03:09PM 38.3350 -92.9408 39° Northeast 386 444 35,000  Level Kansas City Center
03:10PM 38.4186 -92.8550 39° Northeast 383 441 35,000  Level Kansas City Center
03:11PM 38.5017 -92.7686 39° Northeast 382 440 35,000  Level Kansas City Center
03:12PM 38.5853 -92.6822 39° Northeast 382 440 35,000  Level Kansas City Center
03:13PM 38.6669 -92.5967 39° Northeast 380 437 35,000  Level Kansas City Center
03:14PM 38.7506 -92.5106 39° Northeast 380 437 35,000  Level Kansas City Center
03:15PM 38.8517 -92.4050 39° Northeast 385 443 35,000  Level Kansas City Center
03:16PM 38.9342 -92.3169 40° Northeast 385 443 35,000  Level Kansas City Center
03:17PM 39.0200 -92.2294 38° Northeast 389 448 35,000  Level Kansas City Center
03:18PM 39.1044 -92.1397 39° Northeast 391 450 35,000  Level Kansas City Center
03:19PM 39.1714 -92.0292 52° Northeast 391 450 35,000  Level Kansas City Center
03:20PM 39.2369 -91.9119 54° Northeast 394 453 35,000  Level Kansas City Center
03:21PM 39.3103 -91.7872 53° Northeast 400 460 35,000  Level Kansas City Center
03:22PM 39.3828 -91.6608 53° Northeast 400 460 35,000  Level Kansas City Center
03:23PM 39.4472 -91.5464 54° Northeast 396 456 35,000 -300 Level Kansas City Center
03:24PM 39.5092 -91.4378 54° Northeast 387 445 34,500 -780 Descending Kansas City Center
03:25PM 39.5714 -91.3272 54° Northeast 371 427 33,400 -1,020 Descending Kansas City Center
03:26PM 39.6264 -91.2281 54° Northeast 364 419 32,500 -960 Descending Kansas City Center
03:27PM 39.6831 -91.1258 54° Northeast 356 410 31,500 -1,020 Descending Kansas City Center
03:28PM 39.7653 -91.0239 44° Northeast 363 418 30,400 -1,020 Descending Kansas City Center
03:29PM 39.8439 -90.9453 38° Northeast 359 413 29,400 -960 Descending Kansas City Center
03:30PM 39.9239 -90.8642 38° Northeast 362 417 28,500 -960 Descending Kansas City Center
03:31PM 40.0106 -90.7772 38° Northeast 383 441 27,500 -780 Descending Kansas City Center
03:33PM 40.1000 -90.6847 38° Northeast 402 463 27,000 -420 Descending Kansas City Center
03:33PM 40.1419 -90.6450 36° Northeast 412 474 27,000  Level Chicago Center
03:34PM 40.2289 -90.5558 38° Northeast 413 475 27,000  Level Chicago Center
03:35PM 40.3214 -90.4606 38° Northeast 418 481 27,000  Level Chicago Center
03:36PM 40.4347 -90.3447 38° Northeast 427 491 27,000  Level Chicago Center
03:37PM 40.5353 -90.2422 38° Northeast 433 498 27,000  Level Chicago Center
03:38PM 40.6306 -90.1428 38° Northeast 438 504 27,000  Level Chicago Center
03:39PM 40.7261 -90.0453 38° Northeast 437 503 27,000  Level Chicago Center
03:40PM 40.8175 -89.9447 40° Northeast 433 498 27,000 -420 Level Chicago Center
03:41PM 40.9156 -89.8464 37° Northeast 436 502 26,200 -960 Descending Chicago Center
03:42PM 41.0158 -89.7408 38° Northeast 438 504 25,100 -1,020 Descending Chicago Center
03:43PM 41.1139 -89.6383 38° Northeast 446 513 24,100 -540 Descending Chicago Center
03:44PM 41.1906 -89.5169 50° Northeast 430 495 24,000 -60 Descending Chicago Center
03:45PM 41.2561 -89.3533 62° Northeast 417 480 24,000 -1,020 Level Chicago Center
03:46PM 41.3097 -89.2197 62° Northeast 409 471 21,900 -2,400 Descending Chicago Center
03:47PM 41.3581 -89.0964 62° Northeast 411 473 19,100 -3,360 Descending Chicago Center
03:48PM 41.4197 -88.9414 62° Northeast 398 458 15,000 -2,940 Descending Chicago Center
03:49PM 41.4656 -88.8264 62° Northeast 359 413 13,100 -1,920 Descending Chicago Center
03:50PM 41.5089 -88.7161 90° East 339 390 11,100 -1,020 Descending Chicago Center
03:51PM 41.5000 -88.6873 90° East  Level FlightAware Approximate
03:51PM 41.5453 -88.6231 62° Northeast 287 330 11,000  Level Chicago Center
03:53PM 41.5794 -88.5342 63° Northeast 271 312 11,000 -300 Level Chicago Center
03:54PM 41.5897 -88.4375 82° East 265 305 10,400 -840 Descending Chicago Center
03:56PM 41.6667 -88.2333 63° Northeast 269 310 8,400 -1,140 Descending Chicago TRACON
03:57PM 41.7161 -88.1833 37° Northeast 270 311 7,000 -1,500 Descending Chicago Center
03:58PM 41.7678 -88.1169 44° Northeast 257 296 5,500 -1,380 Descending Chicago Center
03:59PM 41.8206 -88.0581 40° Northeast 250 288 4,200 -1,260 Descending Chicago Center
04:00PM 41.8708 -87.9983 41° Northeast 248 285 2,900 -1,320 Descending Chicago Center
04:01PM 41.9167 -87.9500 38° Northeast 190 219 1,800 -1,020 Descending Chicago TRACON
04:02PM 41.9500 -87.9167 37° Northeast 128 147 1,000 -840 Descending Chicago TRACON
04:04PM 41.9667 -87.9000 37° Northeast  Level FlightAware Approximate